Time;durP1;ratioP1;P1;durP2;ratioP2;P2;SDS_P1;SDS_P2;PMS_P1;PMS_P2;Temp;Humidity;BMP_temperature;BMP_pressure;BME280_temperature;BME280_humidity;BME280_pressure;Samples;Min_cycle;Max_cycle;Signal;HPM_P1;HPM_P2
2021/04/25 00:00:12;;;;;;;4.25;3.55;;;;;;;7.53;50.50;101863.25;663718;29;22428;-62
2021/04/25 00:00:34;;;;;;;4.20;3.50;;;;;;;7.52;50.55;101869.59;660852;29;85749;-63
2021/04/25 00:00:55;;;;;;;4.20;3.72;;;;;;;7.48;50.70;101870.88;662973;29;38974;-60
2021/04/25 00:01:17;;;;;;;4.22;3.83;;;;;;;7.44;50.83;101866.72;663876;29;957;-62
2021/04/25 00:01:38;;;;;;;3.92;3.58;;;;;;;7.43;50.72;101865.88;664265;29;1104;-62
2021/04/25 00:02:00;;;;;;;3.60;3.30;;;;;;;7.41;50.80;101865.13;663475;29;23568;-62
2021/04/25 00:02:21;;;;;;;5.30;3.55;;;;;;;7.40;50.81;101861.59;662953;29;45332;-63
2021/04/25 00:02:43;;;;;;;4.15;3.70;;;;;;;7.42;50.71;101857.94;663707;29;23508;-63
2021/04/25 00:03:04;;;;;;;3.92;3.55;;;;;;;7.40;50.73;101861.59;663583;29;23533;-63
2021/04/25 00:03:27;;;;;;;4.95;3.50;;;;;;;7.40;50.61;101864.28;661292;29;93137;-62
2021/04/25 00:03:49;;;;;;;6.05;3.75;;;;;;;7.42;50.71;101866.00;664306;29;901;-61
2021/04/25 00:04:14;;;;;;;5.65;3.40;;;;;;;7.38;50.85;101860.88;663821;29;23507;-62
2021/04/25 00:04:36;;;;;;;4.53;3.25;;;;;;;7.38;50.68;101863.56;660802;29;113506;-60
2021/04/25 00:04:57;;;;;;;4.60;3.47;;;;;;;7.38;50.84;101863.56;662843;29;45287;-61
2021/04/25 00:05:19;;;;;;;4.28;3.38;;;;;;;7.37;50.81;101864.53;660495;29;23494;-62
2021/04/25 00:05:41;;;;;;;3.72;3.30;;;;;;;7.36;50.88;101859.28;659946;29;45269;-62
2021/04/25 00:06:03;;;;;;;4.30;3.30;;;;;;;7.35;50.94;101862.94;660016;29;45221;-63
2021/04/25 00:06:24;;;;;;;3.63;3.33;;;;;;;7.34;50.96;101862.09;659996;29;45252;-62
2021/04/25 00:06:46;;;;;;;3.42;3.17;;;;;;;7.31;51.04;101857.00;660947;29;19457;-62
2021/04/25 00:07:07;;;;;;;3.78;3.47;;;;;;;7.33;50.89;101860.38;661681;29;28036;-62
2021/04/25 00:07:28;;;;;;;3.63;3.33;;;;;;;7.33;50.88;101860.38;663661;29;23370;-63
2021/04/25 00:07:49;;;;;;;4.53;3.28;;;;;;;7.32;51.05;101861.41;663684;29;23387;-62
2021/04/25 00:08:11;;;;;;;5.07;3.28;;;;;;;7.29;51.09;101850.91;664229;29;6442;-63
2021/04/25 00:08:32;;;;;;;3.92;3.60;;;;;;;7.31;51.13;101858.84;663022;29;40094;-62
2021/04/25 00:08:53;;;;;;;4.35;3.30;;;;;;;7.30;51.23;101851.75;663277;29;21023;-63
2021/04/25 00:09:14;;;;;;;5.25;3.50;;;;;;;7.29;51.15;101858.09;663037;29;22187;-62
2021/04/25 00:09:36;;;;;;;3.83;3.42;;;;;;;7.27;51.32;101852.84;663206;29;13007;-61
2021/04/25 00:09:57;;;;;;;3.83;3.47;;;;;;;7.27;51.31;101860.91;662739;29;43677;-62
2021/04/25 00:10:19;;;;;;;3.77;3.47;;;;;;;7.28;51.36;101859.09;663066;29;44184;-62
2021/04/25 00:10:42;;;;;;;3.95;3.55;;;;;;;7.26;51.34;101853.84;662388;29;63918;-61
2021/04/25 00:11:03;;;;;;;3.70;3.40;;;;;;;7.27;51.46;101860.06;662322;29;46699;-62
2021/04/25 00:11:24;;;;;;;4.22;3.40;;;;;;;7.26;51.38;101861.03;662978;29;46356;-62
2021/04/25 00:11:46;;;;;;;4.35;3.33;;;;;;;7.26;51.29;101851.16;663871;29;17299;-62
2021/04/25 00:12:08;;;;;;;4.28;3.45;;;;;;;7.26;51.16;101858.34;663006;29;46290;-62
2021/04/25 00:12:29;;;;;;;3.35;3.13;;;;;;;7.24;51.33;101850.44;663808;29;21489;-63
2021/04/25 00:12:53;;;;;;;3.65;3.35;;;;;;;7.25;51.17;101856.66;662656;29;47380;-62
2021/04/25 00:13:14;;;;;;;3.42;3.17;;;;;;;7.24;51.31;101854.94;661068;29;93169;-61
2021/04/25 00:13:35;;;;;;;3.67;3.38;;;;;;;7.22;51.32;101850.56;663217;29;21556;-62
2021/04/25 00:13:57;;;;;;;5.15;3.78;;;;;;;7.17;51.39;101843.84;663281;29;20526;-62
2021/04/25 00:14:18;;;;;;;3.75;3.28;;;;;;;7.17;51.35;101850.06;662824;29;46431;-63
2021/04/25 00:14:39;;;;;;;3.50;3.20;;;;;;;7.17;51.43;101850.06;663885;29;9493;-60
2021/04/25 00:15:00;;;;;;;3.90;3.53;;;;;;;7.19;51.46;101855.31;663712;29;14053;-62
2021/04/25 00:15:24;;;;;;;4.10;3.38;;;;;;;7.18;51.38;101843.72;663483;29;23568;-61
2021/04/25 00:15:45;;;;;;;4.13;3.72;;;;;;;7.18;51.32;101851.78;661257;29;93133;-61
2021/04/25 00:16:06;;;;;;;4.18;3.38;;;;;;;7.20;51.35;101852.50;663729;29;22390;-62
2021/04/25 00:16:28;;;;;;;5.35;3.42;;;;;;;7.19;51.34;101856.19;663662;29;22499;-62
2021/04/25 00:16:50;;;;;;;4.40;3.60;;;;;;;7.19;51.19;101852.63;662553;29;39112;-62
2021/04/25 00:17:11;;;;;;;3.80;3.40;;;;;;;7.19;51.47;101849.94;663656;29;15367;-62
2021/04/25 00:17:32;;;;;;;3.65;3.35;;;;;;;7.18;51.48;101857.16;662693;29;46412;-62
2021/04/25 00:17:53;;;;;;;3.78;3.50;;;;;;;7.17;51.32;101851.91;663290;29;22376;-62
2021/04/25 00:18:14;;;;;;;4.78;3.63;;;;;;;7.17;51.32;101854.59;663218;29;12245;-63
2021/04/25 00:18:36;;;;;;;4.65;3.63;;;;;;;7.16;51.29;101852.88;663777;29;7740;-61
2021/04/25 00:18:58;;;;;;;3.95;3.60;;;;;;;7.16;51.28;101847.50;660664;29;20564;-62
2021/04/25 00:19:19;;;;;;;3.72;3.33;;;;;;;7.16;51.33;101855.56;659057;29;66717;-63
2021/04/25 00:19:40;;;;;;;4.45;3.55;;;;;;;7.16;51.21;101853.75;660778;29;22397;-61
2021/04/25 00:20:01;;;;;;;4.68;3.58;;;;;;;7.15;50.98;101854.72;660659;29;22108;-63
2021/04/25 00:20:24;;;;;;;5.53;4.10;;;;;;;7.15;51.11;101854.72;661580;29;871;-63
2021/04/25 00:20:46;;;;;;;5.15;4.00;;;;;;;7.15;51.14;101854.72;660539;29;46152;-61
2021/04/25 00:21:08;;;;;;;3.53;3.22;;;;;;;7.15;51.09;101857.41;662888;29;46395;-63
2021/04/25 00:21:31;;;;;;;3.42;3.10;;;;;;;7.15;51.21;101856.56;664461;29;905;-63
2021/04/25 00:21:53;;;;;;;3.65;3.35;;;;;;;7.13;51.24;101856.69;663322;29;32676;-63
2021/04/25 00:22:14;;;;;;;4.65;3.40;;;;;;;7.12;51.34;101848.78;662715;29;45337;-63
2021/04/25 00:22:35;;;;;;;6.20;3.70;;;;;;;7.11;51.38;101850.59;664266;29;926;-63
2021/04/25 00:22:56;;;;;;;3.85;3.35;;;;;;;7.10;51.40;101856.09;663172;29;22274;-63
2021/04/25 00:23:18;;;;;;;4.30;3.35;;;;;;;7.10;51.39;101850.72;663473;29;22413;-62
2021/04/25 00:23:39;;;;;;;5.60;3.33;;;;;;;7.08;51.35;101847.31;662679;29;38053;-62
2021/04/25 00:24:01;;;;;;;5.18;3.30;;;;;;;7.09;51.30;101851.72;663752;29;15795;-63
2021/04/25 00:24:22;;;;;;;3.88;3.20;;;;;;;7.07;51.55;101853.66;663591;29;23429;-62
2021/04/25 00:24:43;;;;;;;4.03;3.40;;;;;;;7.04;51.68;101850.25;663492;29;22379;-62
2021/04/25 00:25:06;;;;;;;4.17;3.50;;;;;;;7.03;51.55;101848.53;663729;29;16548;-63
2021/04/25 00:25:27;;;;;;;3.65;3.33;;;;;;;7.03;51.66;101848.53;661728;29;70464;-63
2021/04/25 00:25:48;;;;;;;4.82;3.28;;;;;;;7.04;51.59;101849.41;664323;29;3081;-63
2021/04/25 00:26:09;;;;;;;4.32;3.60;;;;;;;7.01;51.65;101844.28;663395;29;23433;-62
2021/04/25 00:26:30;;;;;;;4.57;3.83;;;;;;;7.02;51.52;101848.66;663961;29;16579;-63
2021/04/25 00:26:51;;;;;;;3.92;3.40;;;;;;;6.99;51.55;101841.72;662840;29;36930;-63
2021/04/25 00:27:12;;;;;;;4.28;3.70;;;;;;;7.00;51.56;101843.41;663713;29;16847;-63
2021/04/25 00:27:34;;;;;;;4.50;3.50;;;;;;;6.99;51.65;101847.09;663892;29;19424;-62
2021/04/25 00:27:55;;;;;;;3.90;3.60;;;;;;;6.99;51.45;101843.53;663657;29;21322;-62
2021/04/25 00:28:16;;;;;;;3.83;3.47;;;;;;;6.97;51.65;101843.66;663554;29;23400;-62
2021/04/25 00:28:37;;;;;;;3.90;3.53;;;;;;;6.97;51.94;101845.50;662921;29;44038;-62
2021/04/25 00:28:58;;;;;;;4.00;3.60;;;;;;;6.98;51.48;101844.53;663405;29;22413;-63
2021/04/25 00:29:19;;;;;;;4.53;3.50;;;;;;;6.97;51.53;101837.44;662682;29;20850;-62
2021/04/25 00:29:41;;;;;;;5.22;3.50;;;;;;;6.97;51.48;101842.81;663522;29;22237;-62
2021/04/25 00:30:04;;;;;;;3.50;3.10;;;;;;;6.98;51.53;101844.53;663672;29;21524;-61
2021/04/25 00:30:25;;;;;;;5.32;3.50;;;;;;;6.97;51.58;101840.13;660850;29;92745;-62
2021/04/25 00:30:46;;;;;;;3.78;3.38;;;;;;;6.95;51.72;101837.56;663665;29;21474;-62
2021/04/25 00:31:08;;;;;;;4.18;3.35;;;;;;;6.95;51.54;101840.25;663365;29;22402;-62
2021/04/25 00:31:29;;;;;;;3.90;3.50;;;;;;;6.93;51.62;101835.97;663769;29;21033;-62
2021/04/25 00:31:50;;;;;;;4.15;3.50;;;;;;;6.95;51.50;101836.72;662498;29;46360;-62
2021/04/25 00:32:12;;;;;;;3.85;3.50;;;;;;;6.93;51.51;101841.34;663330;29;22407;-62
2021/04/25 00:32:33;;;;;;;3.97;3.50;;;;;;;6.92;51.82;101837.81;663103;29;22379;-62
2021/04/25 00:32:54;;;;;;;3.95;3.55;;;;;;;6.90;51.68;101844.31;663638;29;23639;-62
2021/04/25 00:33:15;;;;;;;3.67;3.38;;;;;;;6.87;52.00;101844.56;662667;29;44355;-63
2021/04/25 00:33:36;;;;;;;3.60;3.30;;;;;;;6.84;51.84;101841.13;663739;29;22403;-62
2021/04/25 00:33:57;;;;;;;4.78;3.30;;;;;;;6.83;51.94;101838.56;662979;29;21507;-63
2021/04/25 00:34:19;;;;;;;4.63;3.58;;;;;;;6.83;52.05;101842.13;663502;29;22406;-63
2021/04/25 00:34:40;;;;;;;4.60;3.55;;;;;;;6.84;51.93;101845.66;663612;29;16713;-62
2021/04/25 00:35:02;;;;;;;4.50;3.70;;;;;;;6.83;52.04;101852.00;663478;29;23520;-63
2021/04/25 00:35:23;;;;;;;4.18;3.72;;;;;;;6.80;51.97;101842.38;663536;29;23434;-62
2021/04/25 00:35:44;;;;;;;4.40;4.00;;;;;;;6.80;51.98;101846.88;663418;29;23349;-62
2021/04/25 00:36:06;;;;;;;15.25;3.95;;;;;;;6.80;52.06;101841.50;662669;29;45217;-62
2021/04/25 00:36:27;;;;;;;4.00;3.60;;;;;;;6.81;51.94;101849.44;662621;29;45261;-63
2021/04/25 00:36:49;;;;;;;5.15;3.80;;;;;;;6.81;51.88;101843.22;663754;29;19402;-62
2021/04/25 00:37:10;;;;;;;5.85;3.75;;;;;;;6.79;51.81;101843.34;662841;29;43849;-62
2021/04/25 00:37:32;;;;;;;4.13;3.60;;;;;;;6.79;51.92;101847.88;663734;29;22311;-62
2021/04/25 00:37:53;;;;;;;3.90;3.53;;;;;;;6.76;52.13;101846.28;663674;29;20763;-62
2021/04/25 00:38:14;;;;;;;3.83;3.53;;;;;;;6.74;52.26;101844.69;663709;29;23437;-62
2021/04/25 00:38:35;;;;;;;4.53;3.20;;;;;;;6.72;52.43;101846.66;663592;29;20850;-60
2021/04/25 00:38:56;;;;;;;4.60;3.72;;;;;;;6.71;52.27;101847.63;663688;29;22416;-62
2021/04/25 00:39:17;;;;;;;5.00;3.75;;;;;;;6.70;52.36;101845.94;662121;29;44376;-61
2021/04/25 00:39:38;;;;;;;3.85;3.53;;;;;;;6.67;52.31;101844.34;663508;29;23442;-62
2021/04/25 00:39:59;;;;;;;4.03;3.67;;;;;;;6.65;52.51;101846.31;663541;29;16558;-62
2021/04/25 00:40:22;;;;;;;4.88;3.72;;;;;;;6.64;52.49;101844.59;663489;29;23419;-62
2021/04/25 00:40:43;;;;;;;3.72;3.35;;;;;;;6.63;52.82;101845.56;662514;29;45310;-62
2021/04/25 00:41:06;;;;;;;3.83;3.53;;;;;;;6.63;52.70;101841.06;663729;29;22362;-63
2021/04/25 00:41:27;;;;;;;3.95;3.50;;;;;;;6.63;52.75;101842.88;661857;29;70234;-63
2021/04/25 00:41:48;;;;;;;3.80;3.40;;;;;;;6.64;52.84;101845.44;663290;29;23523;-63
2021/04/25 00:42:10;;;;;;;3.83;3.17;;;;;;;6.65;52.86;101838.25;663582;29;18536;-62
2021/04/25 00:42:32;;;;;;;4.13;3.67;;;;;;;6.66;52.78;101839.94;661698;29;70199;-63
2021/04/25 00:42:53;;;;;;;3.70;3.40;;;;;;;6.66;53.03;101839.94;661588;29;45234;-63
2021/04/25 00:43:17;;;;;;;4.47;3.60;;;;;;;6.64;52.95;101844.59;663575;29;23433;-62
2021/04/25 00:43:38;;;;;;;4.60;3.88;;;;;;;6.66;52.99;101834.56;662025;29;70322;-63
2021/04/25 00:43:59;;;;;;;4.15;3.42;;;;;;;6.66;52.95;101838.13;663704;29;21210;-63
2021/04/25 00:44:20;;;;;;;3.70;3.40;;;;;;;6.67;52.89;101842.50;662894;29;47238;-62
2021/04/25 00:44:42;;;;;;;4.20;3.50;;;;;;;6.67;53.08;101836.28;663614;29;21517;-62
2021/04/25 00:45:06;;;;;;;3.72;3.42;;;;;;;6.68;53.09;101843.38;659862;29;46323;-63
2021/04/25 00:45:27;;;;;;;3.80;3.40;;;;;;;6.68;53.04;101841.53;658622;29;91286;-62
2021/04/25 00:45:49;;;;;;;4.80;3.60;;;;;;;6.68;52.97;101841.53;660469;29;22382;-62
2021/04/25 00:46:20;;;;;;;3.97;3.50;;;;;;;6.69;53.06;101837.00;657780;29;121687;-63
2021/04/25 00:46:42;;;;;;;4.13;3.53;;;;;;;6.70;52.83;101840.56;661333;29;891;-62
2021/04/25 00:47:04;;;;;;;3.70;3.40;;;;;;;6.70;53.00;101837.88;663613;29;954;-62
2021/04/25 00:47:25;;;;;;;3.67;3.38;;;;;;;6.70;53.14;101833.34;664230;29;1567;-62
2021/04/25 00:47:48;;;;;;;4.65;3.63;;;;;;;6.68;53.09;101841.53;662546;29;44000;-62
2021/04/25 00:48:10;;;;;;;4.03;3.40;;;;;;;6.69;53.28;101837.00;660883;29;92564;-62
2021/04/25 00:48:31;;;;;;;3.75;3.38;;;;;;;6.67;53.23;101839.81;663677;29;6602;-62
2021/04/25 00:48:53;;;;;;;3.80;3.40;;;;;;;6.66;53.34;101843.50;662638;29;45262;-63
2021/04/25 00:49:15;;;;;;;3.63;3.33;;;;;;;6.67;53.31;101839.81;662622;29;13228;-62
2021/04/25 00:49:37;;;;;;;3.40;3.10;;;;;;;6.67;53.56;101841.66;661645;29;47567;-61
2021/04/25 00:49:58;;;;;;;4.13;3.40;;;;;;;6.67;53.47;101841.66;663638;29;18613;-62
2021/04/25 00:50:24;;;;;;;3.90;3.50;;;;;;;6.66;53.50;101837.25;662791;29;23424;-63
2021/04/25 00:50:46;;;;;;;4.10;3.42;;;;;;;6.56;53.44;101823.72;659335;29;138690;-63
2021/04/25 00:51:11;;;;;;;3.85;3.50;;;;;;;6.65;53.44;101832.88;663348;29;21515;-63
2021/04/25 00:51:33;;;;;;;4.05;3.40;;;;;;;6.67;53.42;101825.56;660468;29;116091;-61
2021/04/25 00:51:54;;;;;;;4.13;3.40;;;;;;;6.66;53.31;101835.44;663176;29;23462;-61
2021/04/25 00:52:15;;;;;;;3.55;3.22;;;;;;;6.60;53.19;101822.53;662430;29;46517;-63
2021/04/25 00:52:38;;;;;;;3.53;3.22;;;;;;;6.66;53.27;101839.94;662841;29;23458;-62
2021/04/25 00:52:59;;;;;;;4.13;3.75;;;;;;;6.61;53.38;101834.94;661888;29;69213;-62
2021/04/25 00:53:21;;;;;;;4.75;3.83;;;;;;;6.62;53.32;101841.19;663242;29;23486;-61
2021/04/25 00:53:43;;;;;;;4.22;3.83;;;;;;;6.58;53.19;101828.97;662683;29;46241;-62
2021/04/25 00:54:05;;;;;;;3.72;3.30;;;;;;;6.58;53.17;101835.22;663281;29;22375;-62
2021/04/25 00:54:38;;;;;;;4.20;3.80;;;;;;;6.58;53.24;101834.34;662344;29;60428;-62
2021/04/25 00:54:59;;;;;;;5.53;3.53;;;;;;;6.58;53.15;101835.22;660768;29;109523;-59
2021/04/25 00:55:24;;;;;;;4.30;3.53;;;;;;;6.53;53.24;101823.97;663927;29;12916;-63
2021/04/25 00:55:45;;;;;;;19.67;3.80;;;;;;;6.57;53.37;101832.66;660717;29;92303;-62
2021/04/25 00:56:07;;;;;;;19.55;4.00;;;;;;;6.57;53.32;101828.13;662808;29;39765;-62
2021/04/25 00:56:28;;;;;;;5.28;4.15;;;;;;;6.53;53.15;101825.81;663379;29;19403;-62
2021/04/25 00:56:49;;;;;;;4.70;3.47;;;;;;;6.57;53.32;101832.66;663458;29;21351;-61
2021/04/25 00:57:14;;;;;;;4.18;3.42;;;;;;;6.58;53.10;101832.53;663762;29;1284;-61
2021/04/25 00:57:36;;;;;;;4.20;3.63;;;;;;;6.57;53.20;101833.50;660088;29;112887;-63
2021/04/25 00:57:58;;;;;;;4.05;3.60;;;;;;;6.57;53.09;101830.81;662525;29;41005;-61
2021/04/25 00:58:19;;;;;;;4.28;3.75;;;;;;;6.58;53.01;101834.34;663339;29;23413;-62
2021/04/25 00:58:41;;;;;;;4.85;3.70;;;;;;;6.57;53.03;101828.13;663404;29;23720;-62
2021/04/25 00:59:03;;;;;;;4.10;3.50;;;;;;;6.54;53.05;101824.84;663748;29;19400;-62
2021/04/25 00:59:24;;;;;;;4.00;3.60;;;;;;;6.56;53.13;101833.63;661473;29;45511;-63
2021/04/25 00:59:45;;;;;;;4.32;3.60;;;;;;;6.54;53.20;101830.22;662507;29;46438;-62
2021/04/25 01:00:09;;;;;;;4.40;3.40;;;;;;;6.53;53.40;101832.03;663170;29;23515;-62
2021/04/25 01:00:37;;;;;;;4.32;3.92;;;;;;;6.51;53.24;101835.84;662335;29;60483;-62
2021/04/25 01:00:58;;;;;;;4.25;3.85;;;;;;;6.49;53.39;101831.44;663503;29;23506;-62
2021/04/25 01:01:20;;;;;;;5.03;3.80;;;;;;;6.50;53.33;101829.59;663528;29;22869;-62
2021/04/25 01:01:41;;;;;;;4.82;3.55;;;;;;;6.50;53.31;101837.66;663745;29;12072;-61
2021/04/25 01:02:02;;;;;;;3.80;3.50;;;;;;;6.49;53.41;101834.13;662940;29;43936;-62
2021/04/25 01:02:24;;;;;;;4.57;3.72;;;;;;;6.49;53.27;101827.91;664421;29;855;-62
2021/04/25 01:02:46;;;;;;;4.03;3.65;;;;;;;6.48;53.21;101831.56;662603;29;45241;-63
2021/04/25 01:03:07;;;;;;;4.05;3.65;;;;;;;6.51;53.21;101835.84;663301;29;22501;-61
2021/04/25 01:03:28;;;;;;;4.05;3.65;;;;;;;6.50;53.31;101829.59;663151;29;33553;-62
2021/04/25 01:03:49;;;;;;;3.72;3.42;;;;;;;6.48;53.19;101832.41;663588;29;23695;-62
2021/04/25 01:04:12;;;;;;;4.20;3.70;;;;;;;6.48;53.26;101835.09;664423;29;937;-61
2021/04/25 01:04:33;;;;;;;4.95;3.85;;;;;;;6.49;53.19;101839.50;664490;29;1598;-62
2021/04/25 01:04:55;;;;;;;3.85;3.55;;;;;;;6.49;53.36;101835.97;662679;29;46337;-62
2021/04/25 01:05:17;;;;;;;3.75;3.40;;;;;;;6.48;53.34;101836.94;662591;29;44382;-62
2021/04/25 01:05:38;;;;;;;4.40;3.78;;;;;;;6.48;53.28;101829.72;661903;29;44359;-62
2021/04/25 01:06:00;;;;;;;4.07;3.58;;;;;;;6.47;53.12;101836.09;663868;29;16215;-61
2021/04/25 01:06:22;;;;;;;4.13;3.72;;;;;;;6.49;53.23;101836.81;664485;29;8821;-62
2021/04/25 01:06:43;;;;;;;4.10;3.60;;;;;;;6.47;53.33;101829.84;662381;29;61601;-62
2021/04/25 01:07:04;;;;;;;4.15;3.50;;;;;;;6.45;53.41;101831.81;663614;29;19606;-62
2021/04/25 01:07:25;;;;;;;3.38;3.08;;;;;;;6.44;53.48;101836.34;663554;29;22395;-62
2021/04/25 01:07:47;;;;;;;3.95;3.42;;;;;;;6.40;53.73;101839.38;663724;29;24406;-61
2021/04/25 01:08:08;;;;;;;5.25;3.72;;;;;;;-146.32;100.00;63746.28;664247;29;23374;-62
2021/04/25 01:08:29;;;;;;;4.95;3.75;;;;;;;-146.32;100.00;63746.28;663396;29;44919;-61
2021/04/25 01:08:50;;;;;;;4.38;3.50;;;;;;;6.40;53.71;101842.06;664140;29;20870;-61
2021/04/25 01:09:12;;;;;;;3.90;3.50;;;;;;;-146.32;100.00;63746.28;663301;29;22677;-62
2021/04/25 01:09:33;;;;;;;3.85;3.55;;;;;;;6.40;53.71;101842.06;663968;29;976;-60
2021/04/25 01:09:55;;;;;;;4.70;3.47;;;;;;;6.39;53.95;101838.50;663655;29;23504;-62
2021/04/25 01:10:17;;;;;;;4.65;3.20;;;;;;;6.39;53.83;101840.34;663964;29;23435;-61
2021/04/25 01:10:38;;;;;;;5.40;3.85;;;;;;;6.40;53.79;101839.38;663165;29;46413;-61
2021/04/25 01:11:00;;;;;;;5.85;4.10;;;;;;;6.38;53.95;101841.31;663529;29;42264;-61
2021/04/25 01:11:21;;;;;;;3.97;3.58;;;;;;;6.36;53.94;101846.81;663346;29;45311;-61
2021/04/25 01:11:42;;;;;;;3.60;3.30;;;;;;;6.34;54.05;101840.72;664051;29;21484;-60
2021/04/25 01:12:04;;;;;;;4.18;3.30;;;;;;;6.31;54.18;101840.97;663728;29;22286;-61
2021/04/25 01:12:25;;;;;;;3.83;3.50;;;;;;;6.29;54.42;101843.75;663221;29;44375;-62
2021/04/25 01:12:47;;;;;;;4.82;3.78;;;;;;;6.29;54.43;101843.75;664089;29;22402;-60
2021/04/25 01:13:08;;;;;;;3.97;3.58;;;;;;;6.26;54.54;101837.78;663267;29;46584;-63
2021/04/25 01:13:29;;;;;;;4.18;3.60;;;;;;;6.26;54.60;101832.44;664069;29;22400;-60
2021/04/25 01:13:51;;;;;;;4.78;3.70;;;;;;;6.24;54.67;101834.38;664135;29;20463;-62
2021/04/25 01:14:13;;;;;;;4.15;3.75;;;;;;;6.21;54.74;101824.75;663439;29;32545;-62
2021/04/25 01:14:34;;;;;;;4.20;3.80;;;;;;;6.21;54.92;101834.63;663510;29;22422;-61
2021/04/25 01:14:55;;;;;;;4.00;3.60;;;;;;;6.19;54.94;101832.06;663464;29;24495;-62
2021/04/25 01:15:17;;;;;;;3.80;3.50;;;;;;;6.20;54.84;101836.44;663640;29;22389;-62
2021/04/25 01:15:39;;;;;;;3.83;3.53;;;;;;;6.20;54.63;101830.22;662411;29;68358;-62
2021/04/25 01:16:00;;;;;;;4.32;3.85;;;;;;;6.22;54.74;101830.97;664222;29;15963;-60
2021/04/25 01:16:22;;;;;;;4.93;3.67;;;;;;;6.20;54.83;101839.13;664713;29;930;-61
2021/04/25 01:16:44;;;;;;;5.47;3.33;;;;;;;6.21;54.66;101835.47;663787;29;10803;-62
2021/04/25 01:17:05;;;;;;;3.70;3.35;;;;;;;6.19;54.65;101837.44;664097;29;15266;-61
2021/04/25 01:17:27;;;;;;;4.20;3.55;;;;;;;6.21;54.79;101834.63;663182;29;46388;-60
2021/04/25 01:17:48;;;;;;;4.40;3.42;;;;;;;6.21;54.69;101827.44;663966;29;18620;-61
2021/04/25 01:18:09;;;;;;;5.10;3.80;;;;;;;6.23;54.73;101830.00;663247;29;46261;-63
2021/04/25 01:18:31;;;;;;;5.45;3.83;;;;;;;6.22;54.67;101828.28;664386;29;1137;-61
2021/04/25 01:18:53;;;;;;;5.97;3.70;;;;;;;6.23;54.73;101830.00;664771;29;1005;-61
2021/04/25 01:19:14;;;;;;;4.35;3.60;;;;;;;6.22;54.72;101829.16;663644;29;22646;-62
2021/04/25 01:19:35;;;;;;;4.95;3.72;;;;;;;6.23;54.97;101830.00;663415;29;23532;-61
2021/04/25 01:19:57;;;;;;;7.50;3.80;;;;;;;6.25;54.84;101833.41;664129;29;22351;-61
2021/04/25 01:20:20;;;;;;;5.70;3.90;;;;;;;6.25;54.72;101831.59;663234;29;46392;-62
2021/04/25 01:20:41;;;;;;;4.07;3.70;;;;;;;6.26;54.93;101833.28;662540;29;65214;-62
2021/04/25 01:21:04;;;;;;;4.30;3.70;;;;;;;6.28;54.67;101831.31;664323;29;17598;-62
2021/04/25 01:21:25;;;;;;;4.30;3.55;;;;;;;6.29;54.54;101832.19;663038;29;45234;-62
2021/04/25 01:21:46;;;;;;;4.38;3.70;;;;;;;6.31;54.43;101824.84;660417;29;45419;-61
2021/04/25 01:22:07;;;;;;;4.25;3.85;;;;;;;6.32;54.27;101827.41;661310;29;21504;-61
2021/04/25 01:22:29;;;;;;;4.32;3.92;;;;;;;6.30;54.11;101826.69;661896;29;1036;-61
2021/04/25 01:22:51;;;;;;;4.50;3.80;;;;;;;6.31;54.32;101824.84;661505;29;14314;-62
2021/04/25 01:23:12;;;;;;;4.05;3.60;;;;;;;6.32;54.19;101826.56;660989;29;35022;-61
2021/04/25 01:23:33;;;;;;;4.18;3.70;;;;;;;6.29;54.20;101819.63;661507;29;23506;-61
2021/04/25 01:23:54;;;;;;;4.50;4.10;;;;;;;6.33;54.12;101830.94;660623;29;46422;-61
2021/04/25 01:24:16;;;;;;;4.30;3.90;;;;;;;6.34;54.14;101831.81;661894;29;937;-61
2021/04/25 01:24:37;;;;;;;4.28;3.75;;;;;;;6.32;54.39;101831.94;660510;29;45489;-61
2021/04/25 01:24:58;;;;;;;4.05;3.60;;;;;;;6.32;54.26;101827.41;661710;29;23537;-61
2021/04/25 01:25:21;;;;;;;6.00;3.90;;;;;;;6.32;54.17;101824.75;661632;29;23431;-61
2021/04/25 01:25:42;;;;;;;4.93;3.95;;;;;;;6.34;54.17;101824.63;660017;29;69538;-61
2021/04/25 01:26:04;;;;;;;4.80;4.35;;;;;;;6.34;54.25;101824.63;661385;29;22198;-62
2021/04/25 01:26:25;;;;;;;5.50;4.35;;;;;;;6.36;53.99;101825.34;663476;29;24621;-62
2021/04/25 01:26:46;;;;;;;4.82;4.32;;;;;;;6.37;54.00;101823.53;663528;29;22348;-61
2021/04/25 01:27:07;;;;;;;5.10;4.60;;;;;;;6.37;54.01;101823.53;663962;29;16067;-62
2021/04/25 01:27:28;;;;;;;4.95;4.40;;;;;;;6.36;54.13;101819.97;662817;29;47251;-62
2021/04/25 01:27:50;;;;;;;4.50;4.05;;;;;;;6.35;54.21;101829.00;664575;29;993;-59
2021/04/25 01:28:11;;;;;;;4.70;4.03;;;;;;;6.32;54.52;101823.91;662728;29;46418;-61
2021/04/25 01:28:33;;;;;;;5.35;4.50;;;;;;;6.33;54.43;101820.22;662253;29;3962;-61
2021/04/25 01:28:54;;;;;;;5.18;4.68;;;;;;;6.34;54.39;101818.41;661029;29;38418;-62
2021/04/25 01:29:15;;;;;;;5.70;4.90;;;;;;;6.33;54.50;101822.91;661312;29;20883;-62
2021/04/25 01:29:36;;;;;;;5.88;4.50;;;;;;;6.33;54.41;101820.22;660595;29;22294;-62
2021/04/25 01:29:58;;;;;;;6.28;4.68;;;;;;;6.32;54.44;101822.06;661735;29;24944;-61
2021/04/25 01:30:23;;;;;;;5.53;4.72;;;;;;;6.31;54.64;101822.19;660050;29;47467;-62
2021/04/25 01:30:44;;;;;;;6.80;4.80;;;;;;;6.31;54.69;101830.22;659193;29;93273;-62
2021/04/25 01:31:05;;;;;;;6.18;4.85;;;;;;;6.30;54.55;101828.50;661253;29;33083;-61
2021/04/25 01:31:26;;;;;;;6.43;5.20;;;;;;;6.30;54.62;101825.81;662241;29;8203;-61
2021/04/25 01:31:48;;;;;;;6.72;5.57;;;;;;;6.28;54.81;101828.63;661458;29;24689;-61
2021/04/25 01:32:09;;;;;;;6.00;5.18;;;;;;;6.27;54.56;101820.69;662328;29;2064;-61
2021/04/25 01:32:30;;;;;;;7.13;5.50;;;;;;;6.29;54.76;101824.13;662118;29;10593;-62
2021/04/25 01:32:51;;;;;;;7.57;5.97;;;;;;;6.30;54.57;101825.81;660897;29;38218;-62
2021/04/25 01:33:12;;;;;;;8.50;6.20;;;;;;;6.31;54.51;101825.69;662204;29;6152;-61
2021/04/25 01:33:34;;;;;;;9.85;6.53;;;;;;;6.32;54.59;101824.75;661589;29;23553;-62
2021/04/25 01:33:55;;;;;;;8.52;6.40;;;;;;;6.32;54.54;101826.56;660657;29;32284;-61
2021/04/25 01:34:16;;;;;;;8.15;6.28;;;;;;;6.32;54.40;101826.56;661552;29;18108;-62
2021/04/25 01:34:38;;;;;;;7.70;6.47;;;;;;;6.34;54.27;101821.94;661425;29;23429;-62
2021/04/25 01:34:59;;;;;;;9.07;6.82;;;;;;;6.32;54.52;101829.25;661370;29;22434;-63
2021/04/25 01:35:23;;;;;;;8.23;6.50;;;;;;;6.31;54.68;101823.03;660824;29;47420;-62
2021/04/25 01:35:44;;;;;;;6.88;6.18;;;;;;;6.31;54.83;101828.38;659827;29;69515;-62
2021/04/25 01:36:07;;;;;;;8.45;6.60;;;;;;;6.33;54.67;101825.59;661589;29;21545;-61
2021/04/25 01:36:29;;;;;;;9.68;7.05;;;;;;;6.33;54.50;101820.22;661695;29;14001;-61
2021/04/25 01:36:56;;;;;;;9.05;6.47;;;;;;;6.35;54.51;101822.78;662094;29;944;-62
2021/04/25 01:37:22;;;;;;;8.73;6.13;;;;;;;6.35;54.63;101823.66;660312;29;61065;-61
2021/04/25 01:37:44;;;;;;;9.55;6.35;;;;;;;6.37;54.46;101828.91;660103;29;55555;-61
2021/04/25 01:38:05;;;;;;;8.32;5.78;;;;;;;6.38;54.47;101828.78;661447;29;22137;-62
2021/04/25 01:38:26;;;;;;;7.97;5.53;;;;;;;6.39;54.34;101821.56;661586;29;23535;-61
2021/04/25 01:38:47;;;;;;;7.97;5.50;;;;;;;6.37;54.29;101821.69;662014;29;10766;-62
2021/04/25 01:39:08;;;;;;;7.38;5.40;;;;;;;6.39;54.27;101822.41;661657;29;16492;-62
2021/04/25 01:39:29;;;;;;;8.05;5.80;;;;;;;6.40;54.33;101824.13;660572;29;31014;-61
2021/04/25 01:39:51;;;;;;;7.50;5.50;;;;;;;6.41;54.24;101824.97;661499;29;23613;-62
2021/04/25 01:40:13;;;;;;;6.75;5.50;;;;;;;6.41;54.30;101824.97;661054;29;39882;-62
2021/04/25 01:40:34;;;;;;;6.43;5.28;;;;;;;6.40;54.16;101820.59;661418;29;23441;-62
2021/04/25 01:40:55;;;;;;;6.47;5.22;;;;;;;6.40;54.09;101823.28;660562;29;46347;-62
2021/04/25 01:41:17;;;;;;;7.60;5.60;;;;;;;6.40;54.17;101820.59;661167;29;23698;-62
2021/04/25 01:41:38;;;;;;;7.20;5.75;;;;;;;6.40;54.24;101826.81;660649;29;46380;-62
2021/04/25 01:41:59;;;;;;;8.00;5.47;;;;;;;6.41;54.14;101816.91;662008;29;9991;-62
2021/04/25 01:42:20;;;;;;;6.88;4.93;;;;;;;6.40;54.18;101821.44;662295;29;925;-61
2021/04/25 01:42:41;;;;;;;7.57;5.40;;;;;;;6.39;54.45;101825.09;661582;29;23146;-62
2021/04/25 01:43:03;;;;;;;7.30;5.47;;;;;;;6.38;54.39;101826.09;663490;29;21617;-61
2021/04/25 01:43:24;;;;;;;7.60;5.28;;;;;;;6.39;54.33;101822.41;663785;29;23469;-62